createdAt,value
2017-04-13T00:00:54.429Z,8.48
2017-04-13T00:01:54.020Z,8.33
2017-04-13T00:02:53.052Z,8.67
2017-04-13T00:03:52.016Z,9.58
2017-04-13T00:04:51.453Z,8.30
2017-04-13T00:05:50.440Z,7.70
2017-04-13T00:06:49.778Z,8.05
2017-04-13T00:07:48.789Z,7.95
2017-04-13T00:08:47.818Z,9.10
2017-04-13T00:09:46.754Z,8.77
2017-04-13T00:10:45.804Z,9.47
2017-04-13T00:11:44.810Z,8.42
2017-04-13T00:12:43.325Z,7.92
2017-04-13T00:13:42.442Z,7.67
2017-04-13T00:14:41.440Z,9.08
2017-04-13T00:15:40.058Z,8.23
2017-04-13T00:16:39.108Z,8.10
2017-04-13T00:17:38.092Z,9.50
2017-04-13T00:18:37.083Z,8.15
2017-04-13T00:19:36.160Z,8.82
2017-04-13T00:20:35.140Z,7.97
2017-04-13T00:21:34.079Z,8.85
2017-04-13T00:22:33.108Z,9.50
2017-04-13T00:23:32.148Z,8.18
2017-04-13T00:24:32.118Z,8.65
2017-04-13T00:25:31.849Z,8.87
2017-04-13T00:26:31.001Z,8.33
2017-04-13T00:27:29.939Z,8.28
2017-04-13T00:28:29.007Z,8.43
2017-04-13T00:29:28.008Z,8.15
2017-04-13T00:30:27.048Z,8.17
2017-04-13T00:31:26.009Z,7.88
2017-04-13T00:32:24.976Z,8.97
2017-04-13T00:33:24.002Z,8.02
2017-04-13T00:34:23.073Z,8.40
2017-04-13T00:35:22.076Z,7.92
2017-04-13T00:36:21.256Z,7.55
2017-04-13T00:37:20.291Z,8.47
2017-04-13T00:38:19.219Z,8.17
2017-04-13T00:39:18.296Z,8.75
2017-04-13T00:40:17.776Z,8.87
2017-04-13T00:41:16.771Z,7.87
2017-04-13T00:42:15.755Z,7.65
2017-04-13T00:43:14.688Z,7.93
2017-04-13T00:44:13.736Z,8.52
2017-04-13T00:45:12.677Z,8.05
2017-04-13T00:46:11.716Z,8.32
2017-04-13T00:47:10.752Z,8.20
2017-04-13T00:48:09.773Z,7.50
2017-04-13T00:49:08.714Z,7.78
2017-04-13T00:50:07.663Z,8.03
2017-04-13T00:51:06.695Z,7.98
2017-04-13T00:52:05.720Z,7.65
2017-04-13T00:53:04.649Z,8.92
2017-04-13T00:54:03.641Z,8.05
2017-04-13T00:55:02.635Z,7.80
2017-04-13T00:56:01.627Z,7.53
2017-04-13T00:57:02.116Z,9.12
2017-04-13T00:58:02.095Z,7.75
2017-04-13T00:59:01.096Z,7.55
2017-04-13T01:00:00.067Z,7.52
2017-04-13T01:00:58.651Z,8.03
2017-04-13T01:01:58.044Z,9.48
2017-04-13T01:02:57.409Z,7.75
2017-04-13T01:03:56.413Z,7.75
2017-04-13T01:04:55.487Z,8.73
2017-04-13T01:05:54.851Z,8.55
2017-04-13T01:06:54.073Z,8.88
2017-04-13T01:07:53.092Z,8.30
2017-04-13T01:08:52.111Z,7.57
2017-04-13T01:09:51.111Z,7.50
2017-04-13T01:10:50.100Z,8.97
2017-04-13T01:11:49.066Z,8.48
2017-04-13T01:12:48.116Z,8.92
2017-04-13T01:13:47.147Z,8.60
2017-04-13T01:14:46.244Z,8.95
2017-04-13T01:15:45.649Z,7.80
2017-04-13T01:16:44.592Z,8.12
2017-04-13T01:17:43.622Z,8.02
2017-04-13T01:18:42.687Z,7.45
2017-04-13T01:19:41.707Z,8.47
2017-04-13T01:20:40.695Z,8.72
2017-04-13T01:21:39.723Z,6.95
2017-04-13T01:22:38.747Z,7.62
2017-04-13T01:23:37.821Z,8.07
2017-04-13T01:24:36.848Z,8.43
2017-04-13T01:25:35.871Z,7.35
2017-04-13T01:26:34.938Z,8.43
2017-04-13T01:27:33.945Z,8.13
2017-04-13T01:28:32.975Z,8.00
2017-04-13T01:29:31.984Z,8.40
2017-04-13T01:30:31.047Z,9.25
2017-04-13T01:31:29.978Z,8.80
2017-04-13T01:32:28.999Z,7.75
2017-04-13T01:33:28.089Z,8.55
2017-04-13T01:34:27.099Z,7.20
2017-04-13T01:35:26.088Z,7.92
2017-04-13T01:36:25.084Z,8.27
2017-04-13T01:37:24.057Z,7.83
2017-04-13T01:38:23.060Z,8.23
2017-04-13T01:39:22.216Z,7.78
2017-04-13T01:40:21.214Z,7.80
2017-04-13T01:41:20.159Z,7.75
2017-04-13T01:42:19.151Z,7.45
2017-04-13T01:43:18.131Z,7.58
2017-04-13T01:44:17.059Z,8.80
2017-04-13T01:45:16.018Z,7.97
2017-04-13T01:46:15.404Z,8.08
2017-04-13T01:47:14.368Z,7.62
2017-04-13T01:48:12.967Z,7.85
2017-04-13T01:49:11.908Z,7.63
2017-04-13T01:50:10.931Z,7.93
2017-04-13T01:51:09.935Z,7.50
2017-04-13T01:52:08.577Z,8.93
2017-04-13T01:53:07.532Z,9.08
2017-04-13T01:54:06.482Z,9.18
2017-04-13T01:55:05.645Z,7.40
2017-04-13T01:56:04.586Z,7.63
2017-04-13T01:57:03.738Z,7.68
2017-04-13T01:58:02.702Z,7.23
2017-04-13T01:59:01.717Z,8.17
2017-04-13T02:00:00.721Z,8.03
2017-04-13T02:00:59.710Z,8.07
2017-04-13T02:01:58.702Z,8.28
2017-04-13T02:02:57.826Z,7.90
2017-04-13T02:03:56.952Z,7.70
2017-04-13T02:04:55.938Z,8.58
2017-04-13T02:05:54.979Z,8.13
2017-04-13T02:06:53.968Z,8.28
2017-04-13T02:07:53.151Z,7.75
2017-04-13T02:08:52.113Z,8.77
2017-04-13T02:09:51.173Z,7.55
2017-04-13T02:10:50.171Z,8.07
2017-04-13T02:11:49.503Z,7.83
2017-04-13T02:12:48.430Z,7.27
2017-04-13T02:13:47.451Z,8.55
2017-04-13T02:14:46.526Z,8.13
2017-04-13T02:15:45.504Z,7.98
2017-04-13T02:16:44.488Z,7.97
2017-04-13T02:17:43.082Z,8.63
2017-04-13T02:18:42.125Z,8.03
2017-04-13T02:19:40.679Z,8.15
2017-04-13T02:20:39.759Z,8.37
2017-04-13T02:21:38.788Z,7.95
2017-04-13T02:22:37.780Z,7.13
2017-04-13T02:23:37.494Z,7.52
2017-04-13T02:24:36.887Z,8.02
2017-04-13T02:25:35.875Z,8.57
2017-04-13T02:26:34.952Z,8.40
2017-04-13T02:27:33.942Z,8.30
2017-04-13T02:28:32.944Z,8.43
2017-04-13T02:29:31.975Z,8.03
2017-04-13T02:30:31.027Z,8.02
2017-04-13T02:31:30.012Z,9.28
2017-04-13T02:32:29.012Z,8.27
2017-04-13T02:33:28.013Z,8.62
2017-04-13T02:34:27.007Z,8.62
2017-04-13T02:35:25.540Z,8.03
2017-04-13T02:36:24.535Z,8.85
2017-04-13T02:37:23.537Z,8.32
2017-04-13T02:38:22.548Z,8.05
2017-04-13T02:39:21.511Z,9.30
2017-04-13T02:40:20.528Z,9.43
2017-04-13T02:41:19.511Z,8.65
2017-04-13T02:42:18.492Z,8.85
2017-04-13T02:43:17.520Z,9.32
2017-04-13T02:44:16.895Z,9.23
2017-04-13T02:45:15.879Z,9.03
2017-04-13T02:46:14.878Z,8.80
2017-04-13T02:47:13.827Z,8.82
2017-04-13T02:48:12.416Z,8.77
2017-04-13T02:49:11.491Z,9.53
2017-04-13T02:50:10.539Z,10.53
2017-04-13T02:51:09.538Z,10.30
2017-04-13T02:52:08.587Z,9.12
2017-04-13T02:53:07.547Z,11.00
2017-04-13T02:54:06.871Z,10.03
2017-04-13T02:55:05.856Z,10.38
2017-04-13T02:56:04.872Z,8.80
2017-04-13T02:57:04.264Z,10.15
2017-04-13T02:58:03.263Z,8.95
2017-04-13T02:59:02.255Z,9.58
2017-04-13T03:00:01.251Z,10.45
2017-04-13T03:01:00.375Z,10.63
2017-04-13T03:01:59.445Z,10.92
2017-04-13T03:02:58.439Z,11.47
2017-04-13T03:03:57.503Z,10.60
2017-04-13T03:04:56.547Z,12.55
2017-04-13T03:05:55.630Z,12.60
2017-04-13T03:06:54.672Z,12.20
2017-04-13T03:07:53.670Z,11.68
2017-04-13T03:08:52.711Z,11.28
2017-04-13T03:09:51.717Z,10.62
2017-04-13T03:10:50.684Z,9.97
2017-04-13T03:11:49.630Z,11.25
2017-04-13T03:12:48.577Z,11.18
2017-04-13T03:13:47.649Z,11.10
2017-04-13T03:14:46.588Z,10.60
2017-04-13T03:15:45.583Z,10.92
2017-04-13T03:16:44.632Z,12.02
2017-04-13T03:17:43.596Z,12.42
2017-04-13T03:18:42.554Z,10.63
2017-04-13T03:19:41.669Z,11.15
2017-04-13T03:20:40.636Z,12.93
2017-04-13T03:21:39.676Z,11.80
2017-04-13T03:22:38.315Z,11.57
2017-04-13T03:23:37.361Z,11.93
2017-04-13T03:24:36.376Z,11.08
2017-04-13T03:25:35.384Z,11.75
2017-04-13T03:26:34.377Z,10.45
2017-04-13T03:27:33.366Z,11.63
2017-04-13T03:28:32.368Z,11.33
2017-04-13T03:29:31.381Z,12.13
2017-04-13T03:30:30.370Z,10.88
2017-04-13T03:31:29.399Z,11.50
2017-04-13T03:32:28.373Z,10.72
2017-04-13T03:33:27.401Z,10.67
2017-04-13T03:34:26.427Z,11.60
2017-04-13T03:35:25.376Z,11.40
2017-04-13T03:36:24.419Z,11.22
2017-04-13T03:37:23.453Z,11.67
2017-04-13T03:38:22.904Z,12.30
2017-04-13T03:39:21.927Z,11.07
2017-04-13T03:40:20.891Z,10.40
2017-04-13T03:41:19.891Z,11.97
2017-04-13T03:42:18.927Z,12.12
2017-04-13T03:43:17.975Z,11.63
2017-04-13T03:44:16.961Z,11.35
2017-04-13T03:45:15.971Z,12.12
2017-04-13T03:46:14.984Z,11.38
2017-04-13T03:47:13.940Z,11.42
2017-04-13T03:48:12.911Z,10.83
2017-04-13T03:49:11.920Z,11.08
2017-04-13T03:50:10.988Z,10.98
2017-04-13T03:51:10.001Z,10.53
2017-04-13T03:52:08.978Z,11.72
2017-04-13T03:53:07.960Z,10.90
2017-04-13T03:54:06.975Z,11.68
2017-04-13T03:55:05.973Z,10.53
2017-04-13T03:56:04.973Z,11.35
2017-04-13T03:57:03.584Z,11.02
2017-04-13T03:58:02.612Z,11.27
2017-04-13T03:59:01.219Z,10.95
2017-04-13T04:00:00.198Z,11.30
2017-04-13T04:00:59.966Z,11.65
2017-04-13T04:01:58.979Z,11.22
2017-04-13T04:02:57.930Z,11.45
2017-04-13T04:03:56.938Z,11.33
2017-04-13T04:04:55.875Z,11.23
2017-04-13T04:05:54.915Z,10.45
2017-04-13T04:06:54.047Z,12.25
2017-04-13T04:07:53.061Z,10.93
2017-04-13T04:08:52.128Z,11.90
2017-04-13T04:09:51.123Z,11.50
2017-04-13T04:10:50.464Z,11.62
2017-04-13T04:11:49.488Z,12.32
2017-04-13T04:12:48.905Z,11.18
2017-04-13T04:13:47.904Z,13.02
2017-04-13T04:14:46.918Z,12.08
2017-04-13T04:15:45.920Z,11.48
2017-04-13T04:16:45.983Z,13.08
2017-04-13T04:17:45.035Z,12.50
2017-04-13T04:18:44.443Z,13.72
2017-04-13T04:19:43.375Z,13.35
2017-04-13T04:20:42.745Z,13.57
2017-04-13T04:21:41.738Z,13.92
2017-04-13T04:22:40.717Z,14.15
2017-04-13T04:23:39.847Z,14.68
2017-04-13T04:24:38.918Z,14.27
2017-04-13T04:25:37.862Z,14.90
2017-04-13T04:26:36.811Z,15.10
2017-04-13T04:27:35.820Z,15.37
2017-04-13T04:28:34.800Z,15.03
2017-04-13T04:29:33.799Z,16.13
2017-04-13T04:30:32.788Z,14.53
2017-04-13T04:31:31.820Z,16.35
2017-04-13T04:32:30.790Z,15.43
2017-04-13T04:33:29.754Z,17.08
2017-04-13T04:34:28.786Z,16.93
2017-04-13T04:35:27.828Z,16.80
2017-04-13T04:36:26.844Z,15.03
2017-04-13T04:37:26.274Z,15.33
2017-04-13T04:38:25.245Z,17.30
2017-04-13T04:39:24.182Z,15.50
2017-04-13T04:40:23.219Z,17.02
2017-04-13T04:41:22.188Z,16.25
2017-04-13T04:42:21.204Z,18.05
2017-04-13T04:43:20.227Z,15.20
2017-04-13T04:44:19.196Z,15.88
2017-04-13T04:45:18.202Z,15.13
2017-04-13T04:46:17.136Z,16.32
2017-04-13T04:47:16.111Z,16.58
2017-04-13T04:48:14.802Z,15.77
2017-04-13T04:49:13.766Z,16.15
2017-04-13T04:50:12.700Z,16.98
2017-04-13T04:51:11.713Z,15.07
2017-04-13T04:52:10.691Z,14.17
2017-04-13T04:53:09.683Z,15.38
2017-04-13T04:54:08.680Z,15.25
2017-04-13T04:55:07.694Z,15.97
2017-04-13T04:56:06.666Z,14.57
2017-04-13T04:57:05.619Z,15.35
2017-04-13T04:58:04.611Z,14.85
2017-04-13T04:59:03.158Z,14.33
2017-04-13T05:00:02.117Z,14.87
2017-04-13T05:01:01.327Z,17.08
2017-04-13T05:02:00.297Z,19.92
2017-04-13T05:02:59.303Z,17.32
2017-04-13T05:03:58.256Z,16.58
2017-04-13T05:04:57.283Z,14.90
2017-04-13T05:05:56.239Z,15.77
2017-04-13T05:06:55.168Z,17.27
2017-04-13T05:07:54.168Z,15.80
2017-04-13T05:08:53.168Z,15.58
2017-04-13T05:09:52.167Z,15.90
2017-04-13T05:10:51.134Z,16.13
2017-04-13T05:11:50.102Z,17.78
2017-04-13T05:12:49.115Z,16.35
2017-04-13T05:13:48.105Z,16.57
2017-04-13T05:14:47.051Z,16.72
2017-04-13T05:15:46.095Z,17.05
2017-04-13T05:16:45.054Z,15.80
2017-04-13T05:17:44.103Z,17.77
2017-04-13T05:18:43.051Z,16.93
2017-04-13T05:19:42.065Z,16.15
2017-04-13T05:20:40.759Z,16.00
2017-04-13T05:21:39.732Z,14.78
2017-04-13T05:22:38.690Z,15.70
2017-04-13T05:23:37.667Z,16.00
2017-04-13T05:24:36.708Z,16.10
2017-04-13T05:25:35.733Z,17.07
2017-04-13T05:26:34.720Z,14.40
2017-04-13T05:27:33.731Z,16.13
2017-04-13T05:28:32.735Z,17.65
2017-04-13T05:29:31.792Z,15.80
2017-04-13T05:30:30.835Z,14.75
2017-04-13T05:31:30.182Z,14.95
2017-04-13T05:32:29.242Z,16.22
2017-04-13T05:33:28.244Z,15.05
2017-04-13T05:34:27.187Z,15.42
2017-04-13T05:35:26.227Z,15.02
2017-04-13T05:36:25.192Z,16.60
2017-04-13T05:37:24.169Z,17.88
2017-04-13T05:38:23.163Z,15.22
2017-04-13T05:39:22.102Z,17.72
2017-04-13T05:40:21.087Z,15.85
2017-04-13T05:41:20.074Z,16.87
2017-04-13T05:42:19.121Z,15.73
2017-04-13T05:43:18.116Z,16.73
2017-04-13T05:44:17.434Z,16.60
2017-04-13T05:45:16.389Z,15.60
2017-04-13T05:46:15.391Z,16.03
2017-04-13T05:47:13.943Z,15.42
2017-04-13T05:48:12.963Z,17.13
2017-04-13T05:49:11.896Z,15.33
2017-04-13T05:50:10.503Z,15.53
2017-04-13T05:51:09.504Z,15.43
2017-04-13T05:52:08.424Z,15.83
2017-04-13T05:53:07.570Z,16.05
2017-04-13T05:54:06.511Z,16.80
2017-04-13T05:55:05.475Z,15.50
2017-04-13T05:56:04.479Z,14.63
2017-04-13T05:57:03.460Z,17.60
2017-04-13T05:58:02.501Z,15.57
2017-04-13T05:59:01.542Z,17.10
2017-04-13T06:00:00.548Z,14.83
2017-04-13T06:00:59.180Z,15.60
2017-04-13T06:01:58.170Z,15.72
2017-04-13T06:02:57.091Z,15.27
2017-04-13T06:03:56.119Z,16.07
2017-04-13T06:04:55.131Z,15.93
2017-04-13T06:05:54.151Z,17.65
2017-04-13T06:06:53.120Z,16.17
2017-04-13T06:07:52.132Z,17.08
2017-04-13T06:08:51.096Z,15.95
2017-04-13T06:09:50.071Z,16.35
2017-04-13T06:10:49.136Z,15.93
2017-04-13T06:11:48.109Z,15.70
2017-04-13T06:12:47.092Z,16.68
2017-04-13T06:13:46.056Z,16.70
2017-04-13T06:14:45.063Z,14.38
2017-04-13T06:15:44.061Z,14.92
2017-04-13T06:16:43.095Z,14.98
2017-04-13T06:17:42.107Z,17.30
2017-04-13T06:18:41.055Z,15.85
2017-04-13T06:19:39.631Z,15.27
2017-04-13T06:20:38.628Z,16.30
2017-04-13T06:21:37.583Z,16.82
2017-04-13T06:22:36.559Z,15.83
2017-04-13T06:23:35.580Z,17.32
2017-04-13T06:24:34.587Z,16.78
2017-04-13T06:25:33.599Z,15.58
2017-04-13T06:26:32.964Z,17.47
2017-04-13T06:27:31.907Z,16.83
2017-04-13T06:28:30.968Z,14.78
2017-04-13T06:29:29.960Z,15.85
2017-04-13T06:30:28.911Z,15.75
2017-04-13T06:31:27.932Z,14.50
2017-04-13T06:32:26.861Z,15.40
2017-04-13T06:33:25.851Z,15.90
2017-04-13T06:34:24.830Z,15.07
2017-04-13T06:35:23.390Z,14.80
2017-04-13T06:36:22.421Z,15.03
2017-04-13T06:37:21.405Z,16.17
2017-04-13T06:38:20.359Z,15.20
2017-04-13T06:39:19.306Z,15.97
2017-04-13T06:40:18.288Z,15.50
2017-04-13T06:41:17.311Z,15.42
2017-04-13T06:42:16.251Z,14.37
2017-04-13T06:43:15.181Z,16.88
2017-04-13T06:44:14.212Z,15.80
2017-04-13T06:45:13.228Z,15.30
2017-04-13T06:46:12.179Z,16.67
2017-04-13T06:47:11.208Z,16.32
2017-04-13T06:48:10.154Z,15.87
2017-04-13T06:49:09.084Z,16.30
2017-04-13T06:50:08.943Z,15.72
2017-04-13T06:51:07.899Z,15.72
2017-04-13T06:52:06.862Z,15.15
2017-04-13T06:53:05.891Z,15.72
2017-04-13T06:54:04.853Z,15.65
2017-04-13T06:55:03.920Z,14.70
2017-04-13T06:56:02.872Z,14.97
2017-04-13T06:57:01.916Z,15.75
2017-04-13T06:58:00.952Z,15.73
2017-04-13T06:58:59.939Z,15.52
2017-04-13T06:59:58.907Z,15.72
2017-04-13T07:00:57.883Z,15.62
2017-04-13T07:01:56.914Z,15.12
2017-04-13T07:02:57.231Z,14.13
2017-04-13T07:03:56.304Z,15.87
2017-04-13T07:04:55.363Z,14.93
2017-04-13T07:05:54.359Z,16.03
2017-04-13T07:06:53.353Z,15.70
2017-04-13T07:07:52.351Z,16.62
2017-04-13T07:08:51.355Z,15.13
2017-04-13T07:09:50.328Z,15.18
2017-04-13T07:10:49.743Z,15.78
2017-04-13T07:11:48.727Z,15.27
2017-04-13T07:12:47.706Z,15.70
2017-04-13T07:13:46.666Z,15.48
2017-04-13T07:14:45.624Z,15.78
2017-04-13T07:15:44.945Z,15.85
2017-04-13T07:16:44.124Z,14.70
2017-04-13T07:17:43.163Z,15.73
2017-04-13T07:18:42.133Z,16.07
2017-04-13T07:19:41.224Z,15.87
2017-04-13T07:20:40.134Z,16.03
2017-04-13T07:21:39.499Z,15.50
2017-04-13T07:22:38.500Z,15.03
2017-04-13T07:23:37.495Z,17.05
2017-04-13T07:24:36.769Z,16.60
2017-04-13T07:25:35.852Z,15.88
2017-04-13T07:26:34.831Z,17.67
2017-04-13T07:27:33.919Z,15.58
2017-04-13T07:28:32.869Z,17.70
2017-04-13T07:29:31.852Z,16.27
2017-04-13T07:30:30.862Z,17.08
2017-04-13T07:31:30.207Z,18.03
2017-04-13T07:32:29.232Z,16.40
2017-04-13T07:33:28.207Z,16.85
2017-04-13T07:34:27.206Z,16.25
2017-04-13T07:35:26.179Z,16.93
2017-04-13T07:36:25.132Z,16.87
2017-04-13T07:37:24.072Z,17.12
2017-04-13T07:38:23.055Z,17.03
2017-04-13T07:39:22.044Z,16.22
2017-04-13T07:40:21.111Z,17.17
2017-04-13T07:41:20.130Z,16.63
2017-04-13T07:42:19.195Z,17.30
2017-04-13T07:43:18.135Z,16.72
2017-04-13T07:44:17.059Z,17.20
2017-04-13T07:45:16.080Z,17.43
2017-04-13T07:46:15.067Z,16.80
2017-04-13T07:47:14.071Z,17.45
2017-04-13T07:48:13.019Z,16.40
2017-04-13T07:49:12.032Z,15.65
2017-04-13T07:50:10.983Z,15.82
2017-04-13T07:51:10.028Z,16.07
2017-04-13T07:52:09.035Z,17.27
2017-04-13T07:53:08.032Z,16.03
2017-04-13T07:54:06.995Z,13.27
2017-04-13T07:55:05.986Z,16.38
2017-04-13T07:56:04.959Z,15.33
2017-04-13T07:57:03.547Z,15.00
2017-04-13T07:58:02.606Z,14.07
2017-04-13T07:59:01.547Z,13.93
2017-04-13T08:00:00.564Z,13.73
2017-04-13T08:00:59.764Z,14.18
2017-04-13T08:01:58.775Z,14.15
2017-04-13T08:02:57.771Z,13.20
2017-04-13T08:03:56.735Z,13.40
2017-04-13T08:04:55.887Z,13.13
2017-04-13T08:05:54.879Z,13.80
2017-04-13T08:06:53.855Z,14.32
2017-04-13T08:07:52.959Z,14.32
2017-04-13T08:08:52.180Z,13.37
2017-04-13T08:09:51.154Z,14.75
2017-04-13T08:10:50.135Z,13.32
2017-04-13T08:11:49.066Z,14.38
2017-04-13T08:12:48.031Z,11.80
2017-04-13T08:13:47.300Z,12.47
2017-04-13T08:14:46.263Z,13.60
2017-04-13T08:15:45.279Z,12.38
2017-04-13T08:16:44.274Z,14.02
2017-04-13T08:17:43.244Z,12.60
2017-04-13T08:18:41.822Z,12.27
2017-04-13T08:19:40.475Z,13.47
2017-04-13T08:20:39.432Z,12.95
2017-04-13T08:21:38.407Z,14.13
2017-04-13T08:22:37.404Z,12.57
2017-04-13T08:23:36.367Z,13.17
2017-04-13T08:24:35.346Z,12.93
2017-04-13T08:25:34.334Z,13.58
2017-04-13T08:26:33.314Z,13.23
2017-04-13T08:27:32.275Z,12.95
2017-04-13T08:28:31.324Z,13.30
2017-04-13T08:29:30.859Z,12.72
2017-04-13T08:30:29.901Z,12.85
2017-04-13T08:31:28.935Z,12.13
2017-04-13T08:32:27.912Z,12.87
2017-04-13T08:33:27.705Z,12.32
2017-04-13T08:34:26.639Z,10.70
2017-04-13T08:35:25.601Z,12.63
2017-04-13T08:36:24.622Z,11.67
2017-04-13T08:37:23.595Z,12.13
2017-04-13T08:38:22.617Z,11.93
2017-04-13T08:39:21.326Z,11.08
2017-04-13T08:40:20.295Z,11.50
2017-04-13T08:41:19.263Z,11.50
2017-04-13T08:42:18.295Z,12.33
2017-04-13T08:43:17.279Z,11.93
2017-04-13T08:44:16.195Z,11.62
2017-04-13T08:45:15.243Z,10.63
2017-04-13T08:46:14.169Z,11.85
2017-04-13T08:47:13.153Z,11.05
2017-04-13T08:48:12.106Z,11.85
2017-04-13T08:49:11.103Z,11.68
2017-04-13T08:50:10.103Z,12.33
2017-04-13T08:51:09.140Z,12.92
2017-04-13T08:52:08.148Z,11.78
2017-04-13T08:53:07.126Z,11.68
2017-04-13T08:54:06.510Z,11.63
2017-04-13T08:55:05.455Z,11.72
2017-04-13T08:56:04.439Z,11.18
2017-04-13T08:57:03.438Z,10.92
2017-04-13T08:58:02.423Z,11.10
2017-04-13T08:59:01.428Z,10.77
2017-04-13T09:00:00.428Z,9.75
2017-04-13T09:00:59.789Z,10.88
2017-04-13T09:01:58.755Z,11.28
2017-04-13T09:02:57.756Z,11.82
2017-04-13T09:03:56.779Z,12.80
2017-04-13T09:04:55.764Z,10.85
2017-04-13T09:05:55.117Z,12.30
2017-04-13T09:06:53.730Z,10.87
2017-04-13T09:07:52.660Z,11.70
2017-04-13T09:08:51.736Z,12.30
2017-04-13T09:09:50.856Z,10.72
2017-04-13T09:10:49.835Z,11.20
2017-04-13T09:11:48.874Z,11.88
2017-04-13T09:12:47.892Z,12.30
2017-04-13T09:13:46.906Z,12.60
2017-04-13T09:14:45.903Z,12.25
2017-04-13T09:15:45.004Z,13.55
2017-04-13T09:16:44.007Z,13.63
2017-04-13T09:17:42.987Z,13.82
2017-04-13T09:18:41.928Z,12.60
2017-04-13T09:19:40.895Z,13.98
2017-04-13T09:20:39.911Z,14.53
2017-04-13T09:21:38.910Z,14.43
2017-04-13T09:22:37.876Z,13.12
2017-04-13T09:23:36.859Z,12.62
2017-04-13T09:24:35.816Z,14.08
2017-04-13T09:25:34.893Z,13.02
2017-04-13T09:26:33.895Z,13.13
2017-04-13T09:27:32.933Z,13.27
2017-04-13T09:28:32.071Z,13.73
2017-04-13T09:29:31.051Z,13.35
2017-04-13T09:30:30.020Z,12.68
2017-04-13T09:31:29.003Z,11.70
2017-04-13T09:32:27.984Z,12.12
2017-04-13T09:33:27.036Z,11.78
2017-04-13T09:34:25.626Z,12.55
2017-04-13T09:35:24.563Z,12.72
2017-04-13T09:36:23.567Z,12.13
2017-04-13T09:37:22.595Z,12.02
2017-04-13T09:38:21.575Z,11.92
2017-04-13T09:39:20.595Z,12.90
2017-04-13T09:40:19.607Z,15.13
2017-04-13T09:41:18.580Z,11.95
2017-04-13T09:42:17.536Z,12.92
2017-04-13T09:43:16.501Z,14.57
2017-04-13T09:44:15.527Z,12.92
2017-04-13T09:45:14.570Z,12.83
2017-04-13T09:46:13.552Z,12.07
2017-04-13T09:47:12.552Z,11.87
2017-04-13T09:48:11.482Z,11.98
2017-04-13T09:49:10.519Z,13.40
2017-04-13T09:50:09.830Z,11.57
2017-04-13T09:51:08.955Z,11.12
2017-04-13T09:52:07.919Z,12.08
2017-04-13T09:53:06.858Z,10.73
2017-04-13T09:54:06.224Z,11.57
2017-04-13T09:55:05.212Z,11.85
2017-04-13T09:56:04.307Z,11.62
2017-04-13T09:57:03.234Z,12.13
2017-04-13T09:58:02.298Z,11.05
2017-04-13T09:59:01.292Z,10.62
2017-04-13T10:00:00.270Z,10.02
2017-04-13T10:00:59.299Z,10.48
2017-04-13T10:01:58.246Z,10.82
2017-04-13T10:02:57.307Z,11.47
2017-04-13T10:03:56.289Z,11.08
2017-04-13T10:04:55.290Z,11.20
2017-04-13T10:05:54.307Z,11.48
2017-04-13T10:06:53.271Z,11.68
2017-04-13T10:07:52.235Z,10.80
2017-04-13T10:08:51.243Z,11.15
2017-04-13T10:09:50.226Z,11.77
2017-04-13T10:10:49.301Z,10.23
2017-04-13T10:11:48.262Z,10.10
2017-04-13T10:12:46.866Z,11.72
2017-04-13T10:13:46.086Z,11.30
2017-04-13T10:14:45.131Z,11.02
2017-04-13T10:15:44.131Z,11.55
2017-04-13T10:16:43.208Z,11.30
2017-04-13T10:17:42.288Z,11.25
2017-04-13T10:18:41.315Z,10.40
2017-04-13T10:19:40.335Z,10.80
2017-04-13T10:20:39.383Z,9.70
2017-04-13T10:21:38.016Z,9.67
2017-04-13T10:22:37.046Z,11.05
2017-04-13T10:23:36.027Z,9.85
2017-04-13T10:24:34.967Z,10.50
2017-04-13T10:25:33.600Z,9.78
2017-04-13T10:26:32.613Z,9.65
2017-04-13T10:27:31.715Z,9.07
2017-04-13T10:28:30.752Z,10.48
2017-04-13T10:29:29.747Z,10.05
2017-04-13T10:30:28.732Z,9.80
2017-04-13T10:31:27.699Z,9.93
2017-04-13T10:32:26.694Z,10.17
2017-04-13T10:33:25.686Z,9.85
2017-04-13T10:34:24.625Z,10.77
2017-04-13T10:35:23.789Z,10.72
2017-04-13T10:36:22.735Z,9.85
2017-04-13T10:37:21.750Z,10.32
2017-04-13T10:38:20.343Z,10.35
2017-04-13T10:39:19.300Z,10.40
2017-04-13T10:40:18.264Z,11.48
2017-04-13T10:41:17.204Z,11.38
2017-04-13T10:42:16.295Z,11.42
2017-04-13T10:43:15.233Z,10.62
2017-04-13T10:44:14.260Z,11.10
2017-04-13T10:45:12.928Z,10.80
2017-04-13T10:46:11.915Z,11.72
2017-04-13T10:47:10.907Z,10.15
2017-04-13T10:48:09.908Z,10.97
2017-04-13T10:49:08.907Z,11.33
2017-04-13T10:50:07.939Z,10.97
2017-04-13T10:51:06.972Z,11.12
2017-04-13T10:52:05.905Z,10.72
2017-04-13T10:53:04.900Z,11.15
2017-04-13T10:54:04.263Z,10.25
2017-04-13T10:55:03.292Z,11.73
2017-04-13T10:56:02.318Z,10.38
2017-04-13T10:57:01.699Z,10.92
2017-04-13T10:58:00.634Z,9.38
2017-04-13T10:58:59.640Z,10.52
2017-04-13T10:59:58.612Z,11.53
2017-04-13T11:00:57.592Z,11.77
2017-04-13T11:01:56.619Z,10.13
2017-04-13T11:02:55.607Z,10.72
2017-04-13T11:03:54.584Z,12.50
2017-04-13T11:04:53.579Z,11.35
2017-04-13T11:05:53.582Z,12.20
2017-04-13T11:06:52.171Z,11.75
2017-04-13T11:07:51.162Z,13.02
2017-04-13T11:08:50.159Z,12.68
2017-04-13T11:09:49.148Z,11.88
2017-04-13T11:10:48.116Z,10.67
2017-04-13T11:11:47.038Z,11.70
2017-04-13T11:12:46.079Z,10.82
2017-04-13T11:13:45.051Z,10.37
2017-04-13T11:14:44.056Z,10.97
2017-04-13T11:15:42.700Z,11.45
2017-04-13T11:16:42.025Z,13.50
2017-04-13T11:17:41.067Z,10.50
2017-04-13T11:18:40.052Z,11.53
2017-04-13T11:19:39.079Z,10.43
2017-04-13T11:20:38.068Z,10.58
2017-04-13T11:21:37.113Z,11.50
2017-04-13T11:22:36.476Z,11.35
2017-04-13T11:23:35.455Z,10.25
2017-04-13T11:24:34.479Z,11.60
2017-04-13T11:25:33.475Z,10.88
2017-04-13T11:26:32.498Z,11.28
2017-04-13T11:27:31.437Z,11.08
2017-04-13T11:28:30.387Z,10.15
2017-04-13T11:29:29.444Z,10.25
2017-04-13T11:30:28.376Z,10.73
2017-04-13T11:31:27.370Z,10.85
2017-04-13T11:32:26.411Z,11.45
2017-04-13T11:33:25.382Z,13.17
2017-04-13T11:34:24.384Z,11.18
2017-04-13T11:35:23.402Z,11.82
2017-04-13T11:36:22.004Z,10.62
2017-04-13T11:37:21.015Z,10.93
2017-04-13T11:38:19.967Z,12.23
2017-04-13T11:39:18.897Z,10.95
2017-04-13T11:40:17.863Z,9.90
2017-04-13T11:41:16.907Z,11.22
2017-04-13T11:42:15.864Z,10.87
2017-04-13T11:43:14.487Z,11.90
2017-04-13T11:44:13.474Z,9.97
2017-04-13T11:45:12.474Z,10.75
2017-04-13T11:46:11.401Z,9.90
2017-04-13T11:47:10.434Z,10.02
2017-04-13T11:48:09.362Z,10.73
2017-04-13T11:49:08.404Z,11.75
2017-04-13T11:50:07.444Z,10.82
2017-04-13T11:51:06.712Z,10.32
2017-04-13T11:52:05.668Z,10.18
2017-04-13T11:53:04.698Z,11.12
2017-04-13T11:54:03.307Z,12.65
2017-04-13T11:55:02.319Z,9.80
2017-04-13T11:56:01.324Z,10.33
2017-04-13T11:56:59.859Z,11.40
2017-04-13T11:57:58.884Z,11.10
2017-04-13T11:58:58.204Z,11.37
2017-04-13T11:59:57.195Z,10.35
2017-04-13T12:00:56.171Z,9.90
2017-04-13T12:01:55.515Z,10.23
2017-04-13T12:02:54.454Z,9.50
2017-04-13T12:03:53.486Z,9.75
2017-04-13T12:04:52.422Z,9.17
2017-04-13T12:05:51.445Z,9.82
2017-04-13T12:06:50.472Z,10.33
2017-04-13T12:07:49.553Z,9.78
2017-04-13T12:08:48.993Z,10.78
2017-04-13T12:09:48.043Z,9.35
2017-04-13T12:10:47.064Z,10.65
2017-04-13T12:11:46.051Z,10.32
2017-04-13T12:12:45.054Z,9.90
2017-04-13T12:13:43.995Z,9.08
2017-04-13T12:14:42.975Z,10.37
2017-04-13T12:15:42.384Z,10.33
2017-04-13T12:16:41.338Z,10.48
2017-04-13T12:17:40.398Z,10.88
2017-04-13T12:18:39.399Z,10.78
2017-04-13T12:19:38.355Z,10.02
2017-04-13T12:20:37.403Z,10.63
2017-04-13T12:21:36.367Z,10.87
2017-04-13T12:22:35.715Z,10.63
2017-04-13T12:23:34.663Z,11.03
2017-04-13T12:24:34.068Z,10.07
2017-04-13T12:25:33.035Z,9.67
2017-04-13T12:26:31.945Z,10.48
2017-04-13T12:27:30.956Z,10.45
2017-04-13T12:28:29.870Z,10.85
2017-04-13T12:29:28.874Z,10.30
2017-04-13T12:30:27.873Z,11.63
2017-04-13T12:31:26.872Z,11.07
2017-04-13T12:32:25.852Z,11.37
2017-04-13T12:33:24.773Z,10.48
2017-04-13T12:34:23.783Z,9.95
2017-04-13T12:35:22.774Z,11.22
2017-04-13T12:36:21.754Z,9.83
2017-04-13T12:37:20.867Z,9.68
2017-04-13T12:38:19.496Z,10.00
2017-04-13T12:39:18.460Z,10.05
2017-04-13T12:40:17.442Z,9.62
2017-04-13T12:41:16.416Z,10.25
2017-04-13T12:42:15.507Z,11.20
2017-04-13T12:43:14.455Z,9.92
2017-04-13T12:44:13.383Z,9.88
2017-04-13T12:45:12.395Z,10.93
2017-04-13T12:46:11.387Z,10.38
2017-04-13T12:47:10.379Z,10.25